Morral, Ohio
Current Conditions -  °F | °C
As of 10:53 AM on Thursday 18 Dec 2014 (Local Time) from KMNN Reporting Station
Overcast Overcast  
Wind Chill: 21°   Ceiling: 1800
Heat Index: 28°   Visibility: 8mi
Dew Point: 21°   Wind: 7mph
Humidity: 75%   Direction: 320°NW
Pressure: 30.25"   Gusts: NA
Location:  40.69°N, 83.21°W
Report Text: KMNN 181553Z AUTO 32006KT 8SM OVC018 M02/M06 A3025 RMK AO2 SLP257 T10221061 TSNO
Loading
Personal Weather Stations






























Interactive Weather Map New forecast layout! Learn more

10-Day Weather Forecast

Advertisements
Track Severe Weather on mobile